createdAt,value
2019-01-06T00:01:33.007Z,12.07
2019-01-06T00:04:19.617Z,12.83
2019-01-06T00:07:06.206Z,13.10
2019-01-06T00:09:52.823Z,13.47
2019-01-06T00:15:27.753Z,17.40
2019-01-06T00:18:14.376Z,16.07
2019-01-06T00:21:01.159Z,16.23
2019-01-06T00:26:23.575Z,12.10
2019-01-06T00:29:10.162Z,10.90
2019-01-06T00:31:56.772Z,8.57
2019-01-06T00:34:43.379Z,9.20
2019-01-06T00:37:30.016Z,7.83
2019-01-06T00:40:16.876Z,7.77
2019-01-06T00:43:03.458Z,7.70
2019-01-06T00:53:37.441Z,12.00
2019-01-06T00:56:24.034Z,9.47
2019-01-06T00:59:10.631Z,8.57
2019-01-06T01:04:31.606Z,10.10
2019-01-06T01:07:18.422Z,9.40
2019-01-06T01:12:39.552Z,10.40
2019-01-06T01:18:14.238Z,10.57
2019-01-06T01:21:00.851Z,12.50
2019-01-06T01:23:47.464Z,11.50
2019-01-06T01:26:34.072Z,16.00
2019-01-06T01:29:20.670Z,16.30
2019-01-06T01:32:07.514Z,9.37
2019-01-06T01:34:54.108Z,13.13
2019-01-06T01:37:40.952Z,15.87
2019-01-06T01:43:07.372Z,16.70
2019-01-06T01:45:54.354Z,14.37
2019-01-06T01:48:40.946Z,12.50
2019-01-06T01:51:27.557Z,20.27
2019-01-06T01:54:14.146Z,17.33
2019-01-06T01:57:00.858Z,22.57
2019-01-06T01:59:47.464Z,16.93
2019-01-06T02:05:08.574Z,14.73
2019-01-06T02:07:55.165Z,12.50
2019-01-06T02:10:41.774Z,16.27
2019-01-06T02:13:28.386Z,15.57
2019-01-06T02:16:15.226Z,16.30
2019-01-06T02:19:02.059Z,18.37
2019-01-06T02:21:48.683Z,18.13
2019-01-06T02:24:35.298Z,20.23
2019-01-06T02:27:21.899Z,20.90
2019-01-06T02:30:08.507Z,19.80
2019-01-06T02:32:55.098Z,16.03
2019-01-06T02:35:41.713Z,19.53
2019-01-06T02:38:28.539Z,17.93
2019-01-06T02:41:15.386Z,22.70
2019-01-06T02:46:50.070Z,19.23
2019-01-06T02:49:36.670Z,16.87
2019-01-06T02:52:23.286Z,24.80
2019-01-06T02:55:09.919Z,16.67
2019-01-06T02:57:56.514Z,21.90
2019-01-06T03:00:43.129Z,20.23
2019-01-06T03:06:17.827Z,18.47
2019-01-06T03:09:04.433Z,16.80
2019-01-06T03:11:51.043Z,20.87
2019-01-06T03:14:37.651Z,15.90
2019-01-06T03:20:12.338Z,18.53
2019-01-06T03:25:47.095Z,17.67
2019-01-06T03:28:33.690Z,17.20
2019-01-06T03:31:20.544Z,16.50
2019-01-06T03:47:50.318Z,18.67
2019-01-06T03:50:36.931Z,19.97
2019-01-06T03:53:23.517Z,16.03
2019-01-06T03:56:10.131Z,19.97
2019-01-06T04:01:31.367Z,16.17
2019-01-06T04:09:40.542Z,18.47
2019-01-06T04:17:49.641Z,18.63
2019-01-06T04:20:36.241Z,20.90
2019-01-06T04:26:11.170Z,19.07
2019-01-06T04:28:58.004Z,19.93
2019-01-06T04:31:44.845Z,18.43
2019-01-06T04:37:19.531Z,16.50
2019-01-06T04:40:06.131Z,20.67
2019-01-06T04:45:27.065Z,15.73
2019-01-06T04:48:13.679Z,16.60
2019-01-06T04:53:35.026Z,16.17
2019-01-06T04:56:21.623Z,11.57
2019-01-06T04:59:08.230Z,11.40
2019-01-06T05:01:54.903Z,12.63
2019-01-06T05:04:41.758Z,13.00
2019-01-06T05:07:28.353Z,16.97
2019-01-06T05:12:53.269Z,13.07
2019-01-06T05:15:39.883Z,11.67
2019-01-06T05:18:26.718Z,15.10
2019-01-06T05:23:47.776Z,15.30
2019-01-06T05:29:22.692Z,19.37
2019-01-06T05:32:09.294Z,18.93
2019-01-06T05:34:55.902Z,18.50
2019-01-06T05:37:42.499Z,20.50
2019-01-06T05:40:29.118Z,20.53
2019-01-06T05:43:15.947Z,24.60
2019-01-06T05:46:02.562Z,21.70
2019-01-06T05:48:49.158Z,22.60
2019-01-06T05:51:36.010Z,29.47
2019-01-06T05:54:22.606Z,28.07
2019-01-06T05:57:09.447Z,30.77
2019-01-06T05:59:56.036Z,27.43
2019-01-06T06:02:42.874Z,28.13
2019-01-06T06:13:16.762Z,34.60
2019-01-06T06:16:03.355Z,35.03
2019-01-06T06:18:49.967Z,40.43
2019-01-06T06:21:36.561Z,41.87
2019-01-06T06:24:23.418Z,36.53
2019-01-06T06:27:10.051Z,41.37
2019-01-06T06:32:44.743Z,43.27
2019-01-06T06:38:19.426Z,51.80
2019-01-06T06:41:06.014Z,52.23
2019-01-06T06:43:52.646Z,49.07
2019-01-06T06:46:39.262Z,43.17
2019-01-06T06:49:25.859Z,47.63
2019-01-06T06:52:12.474Z,46.77
2019-01-06T06:54:59.066Z,45.50
2019-01-06T06:58:05.022Z,47.03
2019-01-06T07:01:10.996Z,40.13
2019-01-06T07:07:05.258Z,35.37
2019-01-06T07:09:51.875Z,38.30
2019-01-06T07:12:38.487Z,39.10
2019-01-06T07:21:06.735Z,35.10
2019-01-06T07:23:53.331Z,35.83
2019-01-06T07:26:40.176Z,36.00
2019-01-06T07:29:26.774Z,39.07
2019-01-06T07:40:08.329Z,29.73
2019-01-06T07:48:36.763Z,41.63
2019-01-06T07:51:23.414Z,36.63
2019-01-06T07:54:10.023Z,35.23
2019-01-06T08:04:53.566Z,40.40
2019-01-06T08:07:40.170Z,42.23
2019-01-06T08:13:20.718Z,43.77
2019-01-06T08:16:07.321Z,44.77
2019-01-06T08:18:53.966Z,42.50
2019-01-06T08:24:28.883Z,42.83
2019-01-06T08:30:03.814Z,49.83
2019-01-06T08:32:50.412Z,53.60
2019-01-06T08:38:29.057Z,44.50
2019-01-06T08:41:15.902Z,56.50
2019-01-06T08:49:15.235Z,49.97
2019-01-06T08:52:02.062Z,68.67
2019-01-06T08:54:48.936Z,57.67
2019-01-06T08:57:35.526Z,57.20
2019-01-06T09:03:16.022Z,56.90
2019-01-06T09:06:02.650Z,53.93
2019-01-06T09:08:49.475Z,59.40
2019-01-06T09:11:36.417Z,51.53
2019-01-06T09:14:23.266Z,59.37
2019-01-06T09:17:10.094Z,66.17
2019-01-06T09:19:56.730Z,56.27
2019-01-06T09:22:43.350Z,60.10
2019-01-06T09:28:18.046Z,59.60
2019-01-06T09:31:04.670Z,60.57
2019-01-06T09:33:51.290Z,61.53
2019-01-06T09:44:57.967Z,57.67
2019-01-06T09:47:44.835Z,59.60
2019-01-06T09:55:58.041Z,54.43
2019-01-06T10:01:32.994Z,51.27
2019-01-06T10:04:19.611Z,60.77
2019-01-06T10:09:54.307Z,59.13
2019-01-06T10:12:41.148Z,52.50
2019-01-06T10:18:01.853Z,58.07
2019-01-06T10:20:48.481Z,54.33
2019-01-06T10:23:35.334Z,53.47
2019-01-06T10:26:21.962Z,44.13
2019-01-06T10:29:08.580Z,55.17
2019-01-06T10:31:55.171Z,45.43
2019-01-06T10:37:16.138Z,46.43
2019-01-06T10:40:02.755Z,45.20
2019-01-06T10:42:49.364Z,42.97
2019-01-06T10:45:35.971Z,44.10
2019-01-06T10:48:22.652Z,52.50
2019-01-06T10:53:43.795Z,43.17
2019-01-06T10:56:30.382Z,44.23
2019-01-06T11:01:55.894Z,40.10
2019-01-06T11:04:42.500Z,37.20
2019-01-06T11:07:29.121Z,40.07
2019-01-06T11:10:15.722Z,40.23
2019-01-06T11:13:02.333Z,40.07
2019-01-06T11:18:27.110Z,39.33
2019-01-06T11:21:13.951Z,38.33
2019-01-06T11:24:00.579Z,37.27
2019-01-06T11:29:35.270Z,39.93
2019-01-06T11:32:21.889Z,39.57
2019-01-06T11:37:42.927Z,40.77
2019-01-06T11:40:29.535Z,41.23
2019-01-06T11:43:16.160Z,40.93
2019-01-06T11:46:02.777Z,45.97
2019-01-06T11:51:37.716Z,40.83
2019-01-06T12:02:21.618Z,42.73
2019-01-06T12:05:08.210Z,41.07
2019-01-06T12:07:54.850Z,38.20
2019-01-06T12:13:19.625Z,36.97
2019-01-06T12:16:06.250Z,35.63
2019-01-06T12:18:52.842Z,35.27
2019-01-06T12:21:39.470Z,35.67
2019-01-06T12:29:38.557Z,35.33
2019-01-06T12:32:25.389Z,33.20
2019-01-06T12:35:12.278Z,35.50
2019-01-06T12:37:58.934Z,27.80
2019-01-06T12:40:45.861Z,27.03
2019-01-06T12:43:32.471Z,25.57
2019-01-06T12:46:19.089Z,30.40
2019-01-06T12:49:05.710Z,26.53
2019-01-06T12:51:52.302Z,31.30
2019-01-06T12:54:38.928Z,29.43
2019-01-06T12:57:25.558Z,24.57
2019-01-06T13:02:46.936Z,24.67
2019-01-06T13:05:33.765Z,26.23
2019-01-06T13:10:54.926Z,25.00
2019-01-06T13:13:41.567Z,23.70
2019-01-06T13:16:28.141Z,25.07
2019-01-06T13:19:14.991Z,26.43
2019-01-06T13:22:01.587Z,25.00
2019-01-06T13:24:48.210Z,26.37
2019-01-06T13:27:34.802Z,26.53
2019-01-06T13:30:21.422Z,24.93
2019-01-06T13:33:08.040Z,27.93
2019-01-06T13:35:54.653Z,29.10
2019-01-06T13:38:41.523Z,30.10
2019-01-06T13:41:28.115Z,33.80
2019-01-06T13:44:14.734Z,32.97
2019-01-06T13:47:01.346Z,33.33
2019-01-06T13:49:48.178Z,31.20
2019-01-06T13:52:34.796Z,29.27
2019-01-06T13:58:09.730Z,28.30
2019-01-06T14:00:56.359Z,32.17
2019-01-06T14:03:42.950Z,32.73
2019-01-06T14:06:38.279Z,30.23
2019-01-06T14:14:53.103Z,31.97
2019-01-06T14:17:39.698Z,28.13
2019-01-06T14:20:26.323Z,29.30
2019-01-06T14:26:01.242Z,33.90
2019-01-06T14:28:47.863Z,29.10
2019-01-06T14:31:34.459Z,31.23
2019-01-06T14:34:21.066Z,30.23
2019-01-06T14:37:07.698Z,31.87
2019-01-06T14:39:54.296Z,35.00
2019-01-06T14:45:19.463Z,31.37
2019-01-06T14:48:06.074Z,31.97
2019-01-06T14:50:52.719Z,30.97
2019-01-06T14:53:39.352Z,34.83
2019-01-06T14:59:14.046Z,37.67
2019-01-06T15:02:00.883Z,30.67
2019-01-06T15:04:47.502Z,31.63
2019-01-06T15:07:34.136Z,32.83
2019-01-06T15:10:20.725Z,34.60
2019-01-06T15:18:16.434Z,31.77
2019-01-06T15:21:03.035Z,27.07
2019-01-06T15:23:49.658Z,27.93
2019-01-06T15:29:14.772Z,25.37
2019-01-06T15:32:01.627Z,22.80
2019-01-06T15:37:36.334Z,22.97
2019-01-06T15:43:30.431Z,25.60
2019-01-06T15:46:17.051Z,20.90
2019-01-06T15:49:03.919Z,23.57
2019-01-06T15:51:50.534Z,20.03
2019-01-06T15:54:37.158Z,18.27
2019-01-06T15:57:23.994Z,17.73
2019-01-06T16:00:10.613Z,21.73
2019-01-06T16:02:57.441Z,19.40
2019-01-06T16:05:44.061Z,19.27
2019-01-06T16:08:30.682Z,22.53
2019-01-06T16:11:17.305Z,20.53
2019-01-06T16:14:03.979Z,17.93
2019-01-06T16:16:50.596Z,19.50
2019-01-06T16:19:37.422Z,21.80
2019-01-06T16:22:24.047Z,19.07
2019-01-06T16:25:10.671Z,18.13
2019-01-06T16:30:45.591Z,18.80
2019-01-06T16:33:32.215Z,15.73
2019-01-06T16:36:18.802Z,15.47
2019-01-06T16:39:05.658Z,17.47
2019-01-06T16:41:52.254Z,15.97
2019-01-06T16:44:39.113Z,16.57
2019-01-06T16:47:25.740Z,15.57
2019-01-06T16:50:12.345Z,21.83
2019-01-06T16:52:58.972Z,14.77
2019-01-06T16:55:45.706Z,18.53
2019-01-06T16:58:32.550Z,19.23
2019-01-06T17:01:19.182Z,22.23
2019-01-06T17:04:05.806Z,20.83
2019-01-06T17:06:52.406Z,22.73
2019-01-06T17:09:39.026Z,24.73
2019-01-06T17:12:25.619Z,24.23
2019-01-06T17:15:12.248Z,22.77
2019-01-06T17:20:46.949Z,24.50
2019-01-06T17:23:33.538Z,28.90
2019-01-06T17:26:20.394Z,28.33
2019-01-06T17:29:06.987Z,24.93
2019-01-06T17:34:32.267Z,34.13
2019-01-06T17:37:18.893Z,29.43
2019-01-06T17:40:05.479Z,27.97
2019-01-06T17:42:53.038Z,30.23
2019-01-06T17:45:40.419Z,33.57
2019-01-06T17:51:05.454Z,33.80
2019-01-06T17:53:52.085Z,29.70
2019-01-06T17:56:38.658Z,31.87
2019-01-06T17:59:25.294Z,30.17
2019-01-06T18:05:00.223Z,33.00
2019-01-06T18:07:46.826Z,34.57
2019-01-06T18:13:12.200Z,32.33
2019-01-06T18:15:58.814Z,36.33
2019-01-06T18:18:45.419Z,33.60
2019-01-06T18:21:32.026Z,31.83
2019-01-06T18:26:57.058Z,31.47
2019-01-06T18:29:43.675Z,34.23
2019-01-06T18:32:30.270Z,33.40
2019-01-06T18:35:17.131Z,33.13
2019-01-06T18:38:03.728Z,34.00
2019-01-06T18:40:50.345Z,36.63
2019-01-06T18:43:37.205Z,34.63
2019-01-06T18:46:23.830Z,34.30
2019-01-06T18:49:10.446Z,32.10
2019-01-06T18:51:57.274Z,34.27
2019-01-06T18:54:43.898Z,35.33
2019-01-06T18:57:30.496Z,34.50
2019-01-06T19:02:55.531Z,32.57
2019-01-06T19:05:42.131Z,30.23
2019-01-06T19:08:28.982Z,33.80
2019-01-06T19:11:15.606Z,31.20
2019-01-06T19:14:02.223Z,35.33
2019-01-06T19:16:48.838Z,35.23
2019-01-06T19:19:35.871Z,31.23
2019-01-06T19:22:22.554Z,33.77
2019-01-06T19:25:09.150Z,32.37
2019-01-06T19:30:30.174Z,32.10
2019-01-06T19:33:17.010Z,35.33
2019-01-06T19:38:38.148Z,30.50
2019-01-06T19:41:24.734Z,33.00
2019-01-06T19:44:11.366Z,35.70
2019-01-06T19:46:57.958Z,34.53
2019-01-06T19:49:44.811Z,33.67
2019-01-06T19:52:31.642Z,36.17
2019-01-06T19:55:18.262Z,33.30
2019-01-06T19:58:04.886Z,33.50
2019-01-06T20:00:51.503Z,38.00
2019-01-06T20:03:38.093Z,34.97
2019-01-06T20:11:37.791Z,32.20
2019-01-06T20:17:12.495Z,32.97
2019-01-06T20:19:59.088Z,27.00
2019-01-06T20:22:45.711Z,34.67
2019-01-06T20:25:32.546Z,33.47
2019-01-06T20:28:19.167Z,32.30
2019-01-06T20:31:05.790Z,38.63
2019-01-06T20:33:52.628Z,36.60
2019-01-06T20:36:39.250Z,38.33
2019-01-06T20:42:33.119Z,33.90
2019-01-06T20:45:19.735Z,31.17
2019-01-06T20:50:54.434Z,35.90
2019-01-06T20:53:41.053Z,30.23
2019-01-06T20:59:06.070Z,27.60
2019-01-06T21:01:52.687Z,30.33
2019-01-06T21:04:39.532Z,34.00
2019-01-06T21:07:26.150Z,38.77
2019-01-06T21:10:12.765Z,35.23
2019-01-06T21:12:59.838Z,34.57
2019-01-06T21:15:46.515Z,33.33
2019-01-06T21:18:33.169Z,34.30
2019-01-06T21:21:19.825Z,38.53
2019-01-06T21:29:33.038Z,42.80
2019-01-06T21:32:19.788Z,42.67
2019-01-06T21:35:18.888Z,50.13
2019-01-06T21:37:54.855Z,46.20
2019-01-06T21:43:20.047Z,43.97
2019-01-06T21:49:14.253Z,50.60
2019-01-06T21:54:49.005Z,50.63
2019-01-06T22:00:41.343Z,50.17
2019-01-06T22:03:27.972Z,58.27
2019-01-06T22:06:14.577Z,50.70
2019-01-06T22:11:55.435Z,48.50
2019-01-06T22:23:17.371Z,48.70
2019-01-06T22:26:03.976Z,49.20
2019-01-06T22:28:52.350Z,54.80
2019-01-06T22:31:39.487Z,46.43
2019-01-06T22:37:19.918Z,44.97
2019-01-06T22:43:13.959Z,47.97
2019-01-06T22:46:00.582Z,47.70
2019-01-06T22:48:47.769Z,48.03
2019-01-06T22:51:34.490Z,43.00
2019-01-06T22:54:21.135Z,41.50
2019-01-06T22:57:08.008Z,40.57
2019-01-06T23:00:13.983Z,40.87
2019-01-06T23:05:48.955Z,44.73
2019-01-06T23:08:35.703Z,41.70
2019-01-06T23:11:22.910Z,44.73
2019-01-06T23:14:09.575Z,43.80
2019-01-06T23:16:56.188Z,42.43
2019-01-06T23:19:42.779Z,43.47
2019-01-06T23:22:29.423Z,41.03
2019-01-06T23:25:16.899Z,45.37
2019-01-06T23:28:03.518Z,44.73
2019-01-06T23:31:09.723Z,40.97
2019-01-06T23:36:44.508Z,47.27
2019-01-06T23:39:31.329Z,45.30
2019-01-06T23:45:12.502Z,42.20
2019-01-06T23:47:59.119Z,40.93
2019-01-06T23:50:45.943Z,41.50
2019-01-06T23:53:32.551Z,39.87
2019-01-06T23:56:19.162Z,43.17
